EAI94S EIDW-EGNM
Flight info
| Callsign | EAI94S |
|---|---|
| Flight time | 0h 34m |
| Altitude | 23000 |
| Route | BOFUM1E BOFUM Q37 MALUD L975 WAL DCT POL DCT LBA |
| Aircraft | A21N/M-SDE2E3FGHIRWXY/LB1 |
Departure
| Time | 2026-05-06 17:50 |
|---|---|
| Airport | Dublin Airport (EIDW) |
Arrival
| Time | 2026-05-06 18:24 |
|---|---|
| Airport | Leeds Bradford Airport (EGNM) |
| Time | Latitude | Longitude | Altitude | Speed | Heading |
|---|---|---|---|---|---|
| 2026-05-06 17:12 | 53.43083 | -6.23878 | 218 ft | 0 kts | 152° |
| 2026-05-06 17:32 | 53.43082 | -6.23877 | 216 ft | 0 kts | 152° |
| 2026-05-06 17:35 | 53.43091 | -6.23885 | 216 ft | 4 kts | 155° |
| 2026-05-06 17:35 | 53.43116 | -6.23899 | 221 ft | 4 kts | 174° |
| 2026-05-06 17:36 | 53.43150 | -6.23876 | 218 ft | 0 kts | 243° |
| 2026-05-06 17:38 | 53.43145 | -6.23891 | 220 ft | 3 kts | 236° |
| 2026-05-06 17:38 | 53.43128 | -6.23934 | 234 ft | 6 kts | 237° |
| 2026-05-06 17:38 | 53.43128 | -6.24016 | 216 ft | 9 kts | 286° |
| 2026-05-06 17:38 | 53.43147 | -6.24128 | 219 ft | 11 kts | 285° |
| 2026-05-06 17:39 | 53.43171 | -6.24271 | 216 ft | 14 kts | 290° |
| 2026-05-06 17:39 | 53.43188 | -6.24448 | 216 ft | 17 kts | 274° |
| 2026-05-06 17:39 | 53.43199 | -6.24671 | 216 ft | 21 kts | 275° |
| 2026-05-06 17:39 | 53.43214 | -6.24928 | 223 ft | 23 kts | 275° |
| 2026-05-06 17:40 | 53.43228 | -6.25205 | 216 ft | 23 kts | 275° |
| 2026-05-06 17:40 | 53.43203 | -6.25405 | 221 ft | 16 kts | 238° |
| 2026-05-06 17:40 | 53.43156 | -6.25587 | 223 ft | 18 kts | 250° |
| 2026-05-06 17:40 | 53.43101 | -6.25748 | 224 ft | 13 kts | 193° |
| 2026-05-06 17:41 | 53.42985 | -6.25676 | 220 ft | 26 kts | 156° |
| 2026-05-06 17:41 | 53.42789 | -6.25538 | 222 ft | 32 kts | 157° |
| 2026-05-06 17:41 | 53.42656 | -6.25483 | 218 ft | 19 kts | 227° |
| 2026-05-06 17:41 | 53.42567 | -6.25646 | 216 ft | 20 kts | 220° |
| 2026-05-06 17:42 | 53.42462 | -6.25816 | 216 ft | 22 kts | 225° |
| 2026-05-06 17:42 | 53.42349 | -6.26007 | 216 ft | 24 kts | 226° |
| 2026-05-06 17:42 | 53.42266 | -6.26247 | 216 ft | 26 kts | 276° |
| 2026-05-06 17:42 | 53.42283 | -6.26569 | 216 ft | 32 kts | 275° |
| 2026-05-06 17:43 | 53.42306 | -6.27011 | 218 ft | 41 kts | 275° |
| 2026-05-06 17:43 | 53.42331 | -6.27500 | 216 ft | 43 kts | 275° |
| 2026-05-06 17:43 | 53.42360 | -6.28002 | 216 ft | 44 kts | 275° |
| 2026-05-06 17:43 | 53.42386 | -6.28521 | 216 ft | 45 kts | 275° |
| 2026-05-06 17:44 | 53.42413 | -6.28953 | 222 ft | 17 kts | 265° |
| 2026-05-06 17:44 | 53.42342 | -6.29081 | 216 ft | 0 kts | 166° |
| 2026-05-06 17:47 | 53.42337 | -6.29079 | 216 ft | 2 kts | 165° |
| 2026-05-06 17:48 | 53.42313 | -6.29070 | 215 ft | 5 kts | 168° |
| 2026-05-06 17:48 | 53.42271 | -6.29058 | 215 ft | 8 kts | 170° |
| 2026-05-06 17:48 | 53.42239 | -6.28982 | 218 ft | 7 kts | 94° |
| 2026-05-06 17:48 | 53.42239 | -6.28978 | 219 ft | 0 kts | 95° |
| 2026-05-06 17:49 | 53.42237 | -6.28934 | 222 ft | 23 kts | 95° |
| 2026-05-06 17:49 | 53.42201 | -6.28241 | 218 ft | 94 kts | 95° |
| 2026-05-06 17:49 | 53.42123 | -6.26808 | 218 ft | 149 kts | 96° |
| 2026-05-06 17:49 | 53.42033 | -6.25045 | 691 ft | 149 kts | 96° |
| 2026-05-06 17:50 | 53.41940 | -6.23337 | 1281 ft | 146 kts | 97° |
| 2026-05-06 17:50 | 53.41829 | -6.21560 | 1595 ft | 166 kts | 99° |
| 2026-05-06 17:50 | 53.41703 | -6.19510 | 2159 ft | 191 kts | 97° |
| 2026-05-06 17:50 | 53.41573 | -6.17115 | 2644 ft | 223 kts | 97° |
| 2026-05-06 17:51 | 53.41421 | -6.14362 | 3250 ft | 250 kts | 96° |
| 2026-05-06 17:51 | 53.41256 | -6.11388 | 4128 ft | 262 kts | 96° |
| 2026-05-06 17:51 | 53.41085 | -6.08308 | 5170 ft | 268 kts | 96° |
| 2026-05-06 17:51 | 53.40908 | -6.05163 | 6199 ft | 274 kts | 96° |
| 2026-05-06 17:52 | 53.40919 | -6.01949 | 7149 ft | 280 kts | 77° |
| 2026-05-06 17:52 | 53.41574 | -5.98883 | 8047 ft | 289 kts | 65° |
| 2026-05-06 17:52 | 53.42433 | -5.95706 | 8658 ft | 312 kts | 65° |
| 2026-05-06 17:52 | 53.43365 | -5.92244 | 8923 ft | 335 kts | 65° |
| 2026-05-06 17:53 | 53.44312 | -5.88647 | 9010 ft | 338 kts | 66° |
| 2026-05-06 17:53 | 53.45246 | -5.85037 | 9012 ft | 338 kts | 66° |
| 2026-05-06 17:53 | 53.46177 | -5.81416 | 9011 ft | 337 kts | 66° |
| 2026-05-06 17:53 | 53.47068 | -5.77774 | 9687 ft | 339 kts | 68° |
| 2026-05-06 17:54 | 53.47955 | -5.74070 | 10651 ft | 344 kts | 68° |
| 2026-05-06 17:54 | 53.48860 | -5.70302 | 11603 ft | 349 kts | 67° |
| 2026-05-06 17:54 | 53.49775 | -5.66485 | 12539 ft | 355 kts | 68° |
| 2026-05-06 17:54 | 53.50703 | -5.62601 | 13435 ft | 361 kts | 67° |
| 2026-05-06 17:55 | 53.51652 | -5.58645 | 14287 ft | 367 kts | 67° |
| 2026-05-06 17:55 | 53.52613 | -5.54638 | 15116 ft | 372 kts | 67° |
| 2026-05-06 17:55 | 53.53476 | -5.50522 | 15939 ft | 377 kts | 76° |
| 2026-05-06 17:55 | 53.53700 | -5.46127 | 16766 ft | 380 kts | 91° |
| 2026-05-06 17:56 | 53.53586 | -5.41648 | 17597 ft | 385 kts | 93° |
| 2026-05-06 17:56 | 53.53442 | -5.37190 | 18273 ft | 383 kts | 93° |
| 2026-05-06 17:56 | 53.53318 | -5.33015 | 20172 ft | 330 kts | 92° |
| 2026-05-06 17:56 | 53.53218 | -5.29448 | 22334 ft | 292 kts | 91° |
| 2026-05-06 17:57 | 53.53125 | -5.25997 | 22980 ft | 303 kts | 91° |
| 2026-05-06 17:57 | 53.53030 | -5.22332 | 23065 ft | 327 kts | 91° |
| 2026-05-06 17:57 | 53.52927 | -5.18361 | 23077 ft | 352 kts | 91° |
| 2026-05-06 17:57 | 53.52815 | -5.14103 | 23059 ft | 377 kts | 92° |
| 2026-05-06 17:58 | 53.52678 | -5.09612 | 23041 ft | 394 kts | 92° |
| 2026-05-06 17:58 | 53.52526 | -5.04881 | 23036 ft | 416 kts | 92° |
| 2026-05-06 17:58 | 53.52420 | -5.01616 | 23027 ft | 429 kts | 92° |
| 2026-05-06 17:58 | 53.52254 | -4.96500 | 23025 ft | 447 kts | 92° |
| 2026-05-06 17:59 | 53.52083 | -4.91316 | 23010 ft | 440 kts | 92° |
| 2026-05-06 17:59 | 53.51857 | -4.84529 | 23002 ft | 439 kts | 92° |
| 2026-05-06 17:59 | 53.51687 | -4.79408 | 23001 ft | 439 kts | 92° |
| 2026-05-06 17:59 | 53.51517 | -4.74294 | 23009 ft | 439 kts | 92° |
| 2026-05-06 18:00 | 53.51346 | -4.69174 | 23010 ft | 439 kts | 92° |
| 2026-05-06 18:00 | 53.51230 | -4.65719 | 23011 ft | 439 kts | 92° |
| 2026-05-06 18:00 | 53.51052 | -4.60599 | 23013 ft | 440 kts | 92° |
| 2026-05-06 18:00 | 53.50872 | -4.55465 | 23013 ft | 440 kts | 92° |
| 2026-05-06 18:01 | 53.50690 | -4.50325 | 23013 ft | 440 kts | 92° |
| 2026-05-06 18:01 | 53.50506 | -4.45185 | 23012 ft | 440 kts | 92° |
| 2026-05-06 18:01 | 53.50319 | -4.40050 | 23012 ft | 440 kts | 93° |
| 2026-05-06 18:01 | 53.50130 | -4.34918 | 23012 ft | 440 kts | 93° |
| 2026-05-06 18:02 | 53.49940 | -4.29781 | 23012 ft | 440 kts | 93° |
| 2026-05-06 18:02 | 53.49746 | -4.24653 | 23012 ft | 440 kts | 93° |
| 2026-05-06 18:02 | 53.49550 | -4.19527 | 23012 ft | 440 kts | 93° |
| 2026-05-06 18:02 | 53.49354 | -4.14459 | 23012 ft | 440 kts | 93° |
| 2026-05-06 18:03 | 53.49157 | -4.09319 | 23013 ft | 441 kts | 93° |
| 2026-05-06 18:03 | 53.48962 | -4.04176 | 23013 ft | 441 kts | 93° |
| 2026-05-06 18:03 | 53.48758 | -3.99036 | 23012 ft | 441 kts | 94° |
| 2026-05-06 18:03 | 53.48250 | -3.93965 | 23005 ft | 442 kts | 106° |
| 2026-05-06 18:04 | 53.47239 | -3.89084 | 23019 ft | 442 kts | 109° |
| 2026-05-06 18:04 | 53.46209 | -3.84230 | 23017 ft | 442 kts | 109° |
| 2026-05-06 18:04 | 53.45186 | -3.79362 | 23015 ft | 442 kts | 109° |
| 2026-05-06 18:04 | 53.44167 | -3.74479 | 23014 ft | 442 kts | 109° |
| 2026-05-06 18:05 | 53.43155 | -3.69611 | 23014 ft | 442 kts | 109° |
| 2026-05-06 18:05 | 53.42142 | -3.64748 | 23014 ft | 442 kts | 109° |
| 2026-05-06 18:05 | 53.41298 | -3.59797 | 23009 ft | 442 kts | 99° |
| 2026-05-06 18:05 | 53.41017 | -3.54674 | 23022 ft | 441 kts | 93° |
| 2026-05-06 18:06 | 53.40812 | -3.49543 | 23020 ft | 441 kts | 93° |
| 2026-05-06 18:06 | 53.40601 | -3.44483 | 23017 ft | 441 kts | 93° |
| 2026-05-06 18:06 | 53.40379 | -3.39349 | 23016 ft | 441 kts | 94° |
| 2026-05-06 18:06 | 53.40153 | -3.34281 | 22662 ft | 430 kts | 94° |
| 2026-05-06 18:07 | 53.39922 | -3.29296 | 21929 ft | 426 kts | 94° |
| 2026-05-06 18:07 | 53.39690 | -3.24381 | 21270 ft | 421 kts | 94° |
| 2026-05-06 18:07 | 53.39457 | -3.19506 | 20501 ft | 418 kts | 94° |
| 2026-05-06 18:07 | 53.39457 | -3.14506 | 19738 ft | 415 kts | 82° |
| 2026-05-06 18:08 | 53.40218 | -3.10022 | 19053 ft | 410 kts | 64° |
| 2026-05-06 18:08 | 53.41616 | -3.05877 | 18398 ft | 406 kts | 57° |
| 2026-05-06 18:08 | 53.43089 | -3.01870 | 17678 ft | 402 kts | 57° |
| 2026-05-06 18:08 | 53.44509 | -2.97934 | 16984 ft | 398 kts | 58° |
| 2026-05-06 18:09 | 53.45930 | -2.93910 | 16338 ft | 393 kts | 58° |
| 2026-05-06 18:09 | 53.47288 | -2.90037 | 15824 ft | 386 kts | 58° |
| 2026-05-06 18:09 | 53.48633 | -2.86176 | 15236 ft | 381 kts | 58° |
| 2026-05-06 18:09 | 53.49977 | -2.82295 | 14767 ft | 378 kts | 58° |
| 2026-05-06 18:10 | 53.51281 | -2.78506 | 14299 ft | 371 kts | 58° |
| 2026-05-06 18:10 | 53.52564 | -2.74770 | 13749 ft | 367 kts | 58° |
| 2026-05-06 18:10 | 53.53831 | -2.71069 | 13149 ft | 364 kts | 58° |
| 2026-05-06 18:10 | 53.55090 | -2.67394 | 12571 ft | 361 kts | 58° |
| 2026-05-06 18:11 | 53.56337 | -2.63749 | 12000 ft | 357 kts | 58° |
| 2026-05-06 18:11 | 53.57566 | -2.60137 | 11449 ft | 354 kts | 58° |
| 2026-05-06 18:11 | 53.58764 | -2.56622 | 10964 ft | 349 kts | 58° |
| 2026-05-06 18:11 | 53.59953 | -2.53127 | 10688 ft | 338 kts | 59° |
| 2026-05-06 18:12 | 53.61102 | -2.49741 | 10485 ft | 326 kts | 58° |
| 2026-05-06 18:12 | 53.62201 | -2.46494 | 10325 ft | 314 kts | 58° |
| 2026-05-06 18:12 | 53.63264 | -2.43352 | 10184 ft | 301 kts | 58° |
| 2026-05-06 18:12 | 53.64283 | -2.40347 | 10049 ft | 289 kts | 58° |
| 2026-05-06 18:13 | 53.65263 | -2.37449 | 9848 ft | 281 kts | 58° |
| 2026-05-06 18:13 | 53.66225 | -2.34601 | 9475 ft | 279 kts | 58° |
| 2026-05-06 18:13 | 53.67178 | -2.31768 | 9074 ft | 277 kts | 58° |
| 2026-05-06 18:13 | 53.68128 | -2.28948 | 8680 ft | 276 kts | 58° |
| 2026-05-06 18:14 | 53.69081 | -2.26130 | 8310 ft | 275 kts | 59° |
| 2026-05-06 18:14 | 53.70022 | -2.23336 | 8034 ft | 274 kts | 58° |
| 2026-05-06 18:14 | 53.70956 | -2.20558 | 7991 ft | 271 kts | 58° |
| 2026-05-06 18:14 | 53.71888 | -2.17791 | 8003 ft | 270 kts | 59° |
| 2026-05-06 18:15 | 53.72818 | -2.15022 | 8013 ft | 273 kts | 59° |
| 2026-05-06 18:15 | 53.73756 | -2.12219 | 8024 ft | 274 kts | 59° |
| 2026-05-06 18:15 | 53.74649 | -2.09381 | 8029 ft | 274 kts | 63° |
| 2026-05-06 18:15 | 53.75441 | -2.06489 | 8040 ft | 274 kts | 64° |
| 2026-05-06 18:16 | 53.76231 | -2.03551 | 8044 ft | 275 kts | 64° |
| 2026-05-06 18:16 | 53.77019 | -2.00618 | 8045 ft | 274 kts | 64° |
| 2026-05-06 18:16 | 53.77807 | -1.97690 | 8039 ft | 274 kts | 64° |
| 2026-05-06 18:16 | 53.78600 | -1.94755 | 8039 ft | 272 kts | 64° |
| 2026-05-06 18:17 | 53.79361 | -1.91925 | 8027 ft | 256 kts | 64° |
| 2026-05-06 18:17 | 53.80079 | -1.89262 | 8015 ft | 240 kts | 64° |
| 2026-05-06 18:17 | 53.80748 | -1.86774 | 8015 ft | 224 kts | 64° |
| 2026-05-06 18:17 | 53.81460 | -1.84500 | 8004 ft | 215 kts | 47° |
| 2026-05-06 18:18 | 53.82620 | -1.83046 | 7657 ft | 207 kts | 15° |
| 2026-05-06 18:18 | 53.84019 | -1.82887 | 7232 ft | 201 kts | 341° |
| 2026-05-06 18:18 | 53.85235 | -1.83955 | 6832 ft | 198 kts | 322° |
| 2026-05-06 18:18 | 53.86335 | -1.85375 | 6468 ft | 199 kts | 320° |
| 2026-05-06 18:19 | 53.87426 | -1.86819 | 6135 ft | 198 kts | 320° |
| 2026-05-06 18:19 | 53.88513 | -1.88252 | 5742 ft | 198 kts | 326° |
| 2026-05-06 18:19 | 53.89820 | -1.88935 | 5313 ft | 201 kts | 1° |
| 2026-05-06 18:19 | 53.91176 | -1.88390 | 4939 ft | 202 kts | 19° |
| 2026-05-06 18:20 | 53.92490 | -1.87564 | 4592 ft | 201 kts | 22° |
| 2026-05-06 18:20 | 53.93607 | -1.86211 | 4233 ft | 198 kts | 47° |
| 2026-05-06 18:20 | 53.94306 | -1.84239 | 3891 ft | 195 kts | 64° |
| 2026-05-06 18:20 | 53.94827 | -1.82168 | 3574 ft | 192 kts | 81° |
| 2026-05-06 18:21 | 53.94685 | -1.79953 | 3261 ft | 188 kts | 114° |
| 2026-05-06 18:21 | 53.94063 | -1.78037 | 2994 ft | 187 kts | 121° |
| 2026-05-06 18:21 | 53.93254 | -1.76307 | 2705 ft | 188 kts | 133° |
| 2026-05-06 18:21 | 53.92300 | -1.74854 | 2464 ft | 180 kts | 139° |
| 2026-05-06 18:22 | 53.91390 | -1.73440 | 2166 ft | 176 kts | 141° |
| 2026-05-06 18:22 | 53.90519 | -1.72060 | 1864 ft | 167 kts | 133° |
| 2026-05-06 18:22 | 53.89664 | -1.70819 | 1586 ft | 154 kts | 130° |
| 2026-05-06 18:22 | 53.88955 | -1.69714 | 1300 ft | 129 kts | 136° |
| 2026-05-06 18:23 | 53.88295 | -1.68692 | 1072 ft | 128 kts | 136° |
| 2026-05-06 18:23 | 53.87642 | -1.67681 | 875 ft | 127 kts | 136° |
| 2026-05-06 18:23 | 53.86989 | -1.66674 | 681 ft | 124 kts | 135° |
| 2026-05-06 18:23 | 53.86463 | -1.65855 | 672 ft | 78 kts | 138° |
| 2026-05-06 18:24 | 53.86187 | -1.65429 | 685 ft | 30 kts | 139° |
| 2026-05-06 18:24 | 53.86055 | -1.65234 | 681 ft | 26 kts | 138° |
| 2026-05-06 18:24 | 53.85937 | -1.65052 | 673 ft | 12 kts | 130° |
| 2026-05-06 18:24 | 53.85909 | -1.64924 | 669 ft | 5 kts | 130° |
| 2026-05-06 18:25 | 53.85878 | -1.64940 | 669 ft | 7 kts | 265° |
| 2026-05-06 18:25 | 53.85922 | -1.65034 | 672 ft | 20 kts | 318° |
| 2026-05-06 18:25 | 53.86077 | -1.65270 | 683 ft | 35 kts | 318° |
| 2026-05-06 18:25 | 53.86233 | -1.65468 | 684 ft | 24 kts | 0° |
| 2026-05-06 18:26 | 53.86405 | -1.65447 | 680 ft | 25 kts | 2° |
| 2026-05-06 18:26 | 53.86581 | -1.65434 | 671 ft | 26 kts | 2° |
| 2026-05-06 18:26 | 53.86716 | -1.65421 | 666 ft | 17 kts | 4° |
| 2026-05-06 18:26 | 53.86801 | -1.65422 | 667 ft | 9 kts | 325° |
| 2026-05-06 18:27 | 53.86815 | -1.65550 | 669 ft | 13 kts | 269° |
| 2026-05-06 18:27 | 53.86815 | -1.65674 | 670 ft | 5 kts | 287° |
| 2026-05-06 18:27 | 53.86849 | -1.65691 | 670 ft | 4 kts | 0° |
| 2026-05-06 18:27 | 53.86868 | -1.65690 | 670 ft | 3 kts | 1° |
| 2026-05-06 18:28 | 53.86876 | -1.65690 | 671 ft | 0 kts | 1° |